Time;durP1;ratioP1;P1;durP2;ratioP2;P2;SDS_P1;SDS_P2;PMS_P1;PMS_P2;Temp;Humidity;BMP_temperature;BMP_pressure;BME280_temperature;BME280_humidity;BME280_pressure;Samples;Min_cycle;Max_cycle;Signal;HPM_P1;HPM_P2
2021/03/29 00:01:02;;;;;;;;;;;;;;;32.57;17.25;102084.63;5119110;28;806;-39
2021/03/29 00:03:27;;;;;;;;;;;;;;;32.70;16.95;102091.28;5119604;28;803;-36
2021/03/29 00:05:52;;;;;;;;;;;;;;;32.80;16.82;102091.81;5119036;28;1901;-39
2021/03/29 00:08:19;;;;;;;;;;;;;;;32.88;16.69;102084.59;5118255;28;967;-35
2021/03/29 00:10:45;;;;;;;;;;;;;;;32.88;16.91;102101.81;5100820;28;752;-41
2021/03/29 00:13:11;;;;;;;;;;;;;;;32.25;17.32;102084.75;5101340;28;799;-40
2021/03/29 00:15:37;;;;;;;;;;;;;;;32.50;17.41;102086.38;5100536;28;843;-40
2021/03/29 00:18:05;;;;;;;;;;;;;;;32.82;17.36;102094.38;5118870;28;854;-35
2021/03/29 00:20:30;;;;;;;;;;;;;;;32.57;17.12;102094.66;5119121;28;489;-43
2021/03/29 00:22:58;;;;;;;;;;;;;;;31.94;17.91;102093.03;5099163;28;941;-43
2021/03/29 00:25:24;;;;;;;;;;;;;;;32.51;17.53;102107.13;5100304;28;1913;-35
2021/03/29 00:27:49;;;;;;;;;;;;;;;32.66;17.48;102101.72;5100844;28;775;-35
2021/03/29 00:30:16;;;;;;;;;;;;;;;32.77;17.56;102118.59;5118404;28;726;-37
2021/03/29 00:32:41;;;;;;;;;;;;;;;32.81;17.58;102122.66;5118856;28;751;-35
2021/03/29 00:35:07;;;;;;;;;;;;;;;32.87;17.73;102121.91;5118826;28;851;-35
2021/03/29 00:37:32;;;;;;;;;;;;;;;32.86;17.04;102123.78;5098618;28;962;-42
2021/03/29 00:39:58;;;;;;;;;;;;;;;32.50;17.53;102127.22;5100366;28;792;-35
2021/03/29 00:42:23;;;;;;;;;;;;;;;32.50;17.85;102122.63;5118076;28;982;-40
2021/03/29 00:44:48;;;;;;;;;;;;;;;32.88;17.66;102129.06;5099881;28;823;-35
2021/03/29 00:47:13;;;;;;;;;;;;;;;32.77;17.45;102124.91;5100428;28;1914;-35
2021/03/29 00:49:39;;;;;;;;;;;;;;;32.41;17.74;102131.06;5118444;28;752;-36
2021/03/29 00:52:04;;;;;;;;;;;;;;;32.49;17.95;102125.53;5116112;28;1017;-39
2021/03/29 00:54:29;;;;;;;;;;;;;;;32.74;17.80;102134.31;5118427;28;913;-35
2021/03/29 00:56:55;;;;;;;;;;;;;;;32.82;17.66;102135.25;5100312;28;779;-40
2021/03/29 00:59:20;;;;;;;;;;;;;;;32.86;17.77;102147.47;5099919;28;820;-35
2021/03/29 01:01:46;;;;;;;;;;;;;;;32.92;17.51;102148.56;5099466;28;843;-36
2021/03/29 01:04:11;;;;;;;;;;;;;;;32.97;17.31;102148.84;5117602;28;731;-35
2021/03/29 01:06:38;;;;;;;;;;;;;;;32.78;17.41;102148.41;5098081;28;1909;-41
2021/03/29 01:09:05;;;;;;;;;;;;;;;32.46;17.47;102144.97;5100019;28;803;-40
2021/03/29 01:11:31;;;;;;;;;;;;;;;32.80;17.45;102150.94;5100091;28;738;-35
2021/03/29 01:13:57;;;;;;;;;;;;;;;32.95;17.16;102154.50;5117659;28;756;-42
2021/03/29 01:16:23;;;;;;;;;;;;;;;32.60;17.63;102162.38;5100250;28;763;-40
2021/03/29 01:18:49;;;;;;;;;;;;;;;32.43;17.74;102158.97;5099588;28;752;-36
2021/03/29 01:21:20;;;;;;;;;;;;;;;32.69;17.65;102154.97;5097617;28;1001;-36
2021/03/29 01:23:45;;;;;;;;;;;;;;;32.76;17.70;102147.75;5117718;28;807;-35
2021/03/29 01:26:17;;;;;;;;;;;;;;;32.85;17.61;102160.22;5098987;28;1964;-40
2021/03/29 01:28:43;;;;;;;;;;;;;;;32.89;17.44;102159.84;5117255;28;822;-35
2021/03/29 01:31:08;;;;;;;;;;;;;;;32.98;17.38;102172.38;5098961;28;813;-40
2021/03/29 01:33:33;;;;;;;;;;;;;;;32.62;17.60;102168.50;5117462;28;886;-44
2021/03/29 01:35:59;;;;;;;;;;;;;;;32.48;17.85;102165.53;5115796;28;954;-35
2021/03/29 01:38:25;;;;;;;;;;;;;;;32.82;17.70;102162.47;5117500;28;838;-42
2021/03/29 01:40:50;;;;;;;;;;;;;;;32.80;17.50;102170.03;5099188;28;815;-36
2021/03/29 01:43:15;;;;;;;;;;;;;;;32.43;17.54;102178.88;5116994;28;1253;-36
2021/03/29 01:45:41;;;;;;;;;;;;;;;32.51;18.08;102180.69;5098757;28;1910;-41
2021/03/29 01:48:06;;;;;;;;;;;;;;;32.73;17.82;102186.28;5117084;28;843;-43
2021/03/29 01:50:32;;;;;;;;;;;;;;;32.81;17.69;102193.50;5117106;28;782;-40
2021/03/29 01:52:58;;;;;;;;;;;;;;;32.92;17.48;102170.38;5097610;28;981;-36
2021/03/29 01:55:23;;;;;;;;;;;;;;;32.99;17.39;102191.25;5117305;28;800;-42
2021/03/29 01:57:49;;;;;;;;;;;;;;;33.07;17.29;102186.72;5116887;28;755;-36
2021/03/29 02:00:19;;;;;;;;;;;;;;;32.78;17.48;102180.25;5117478;28;874;-41
2021/03/29 02:02:44;;;;;;;;;;;;;;;32.36;18.05;102173.34;5117462;28;809;-41
2021/03/29 02:05:12;;;;;;;;;;;;;;;32.85;17.66;102178.47;5116569;28;1956;-35
2021/03/29 02:07:38;;;;;;;;;;;;;;;32.91;17.72;102183.19;5096478;28;1059;-35
2021/03/29 02:10:13;;;;;;;;;;;;;;;32.99;17.36;102187.69;5099199;28;761;-41
2021/03/29 02:12:39;;;;;;;;;;;;;;;33.02;17.50;102184.56;5098307;28;840;-37
2021/03/29 02:15:08;;;;;;;;;;;;;;;33.06;17.58;102174.13;5099143;28;772;-37
2021/03/29 02:17:33;;;;;;;;;;;;;;;32.87;17.60;102184.56;5116178;28;859;-40
2021/03/29 02:19:58;;;;;;;;;;;;;;;32.28;18.26;102189.75;5116477;28;827;-35
2021/03/29 02:22:23;;;;;;;;;;;;;;;32.80;17.86;102187.19;5096966;28;958;-41
2021/03/29 02:24:49;;;;;;;;;;;;;;;32.93;17.75;102192.00;5116831;28;799;-41
2021/03/29 02:27:14;;;;;;;;;;;;;;;33.00;17.54;102194.81;5098210;28;1973;-35
2021/03/29 02:29:39;;;;;;;;;;;;;;;33.02;17.63;102192.75;5098547;28;791;-39
2021/03/29 02:32:05;;;;;;;;;;;;;;;33.08;17.59;102193.88;5116350;28;1406;-36
2021/03/29 02:34:30;;;;;;;;;;;;;;;33.09;17.36;102201.06;5098674;28;807;-39
2021/03/29 02:36:55;;;;;;;;;;;;;;;32.48;17.96;102202.84;5114878;28;981;-42
2021/03/29 02:39:21;;;;;;;;;;;;;;;32.68;17.97;102194.16;5098152;28;942;-40
2021/03/29 02:41:46;;;;;;;;;;;;;;;32.88;17.79;102183.56;5098324;28;1173;-35
2021/03/29 02:44:12;;;;;;;;;;;;;;;32.93;17.29;102180.25;5116828;28;772;-41
2021/03/29 02:46:37;;;;;;;;;;;;;;;32.92;17.39;102176.69;5116520;28;1974;-35
2021/03/29 02:49:03;;;;;;;;;;;;;;;33.01;17.25;102190.22;5116691;28;728;-46
2021/03/29 02:51:28;;;;;;;;;;;;;;;33.09;17.43;102184.69;5114827;28;969;-38
2021/03/29 02:53:57;;;;;;;;;;;;;;;32.79;17.53;102187.38;5116378;28;756;-42
2021/03/29 02:56:26;;;;;;;;;;;;;;;32.52;17.74;102190.53;5116748;28;805;-38
2021/03/29 02:58:52;;;;;;;;;;;;;;;32.81;17.65;102193.50;5116303;28;752;-39
2021/03/29 03:01:17;;;;;;;;;;;;;;;32.92;17.57;102193.03;5116617;28;783;-41
2021/03/29 03:03:43;;;;;;;;;;;;;;;32.99;17.25;102193.97;5116937;28;767;-38
2021/03/29 03:06:08;;;;;;;;;;;;;;;33.08;17.60;102199.34;5114546;28;1910;-41
2021/03/29 03:08:34;;;;;;;;;;;;;;;33.16;17.52;102201.13;5116471;28;783;-44
2021/03/29 03:10:59;;;;;;;;;;;;;;;32.93;17.60;102196.63;5116637;28;771;-41
2021/03/29 03:13:25;;;;;;;;;;;;;;;32.64;17.75;102209.19;5097610;28;804;-50
2021/03/29 03:15:50;;;;;;;;;;;;;;;32.93;17.39;102218.41;5098380;28;755;-40
2021/03/29 03:18:15;;;;;;;;;;;;;;;32.96;17.43;102220.78;5116282;28;536;-38
2021/03/29 03:20:41;;;;;;;;;;;;;;;33.07;17.37;102214.84;5116084;28;795;-42
2021/03/29 03:23:09;;;;;;;;;;;;;;;33.14;17.12;102217.69;5098125;28;953;-48
2021/03/29 03:25:38;;;;;;;;;;;;;;;32.63;16.63;102221.97;5096037;28;1909;-48
2021/03/29 03:28:04;;;;;;;;;;;;;;;32.12;16.47;102224.22;5097320;28;842;-44
2021/03/29 03:30:31;;;;;;;;;;;;;;;31.91;16.79;102215.84;5099831;28;767;-35
2021/03/29 03:32:56;;;;;;;;;;;;;;;31.70;17.27;102220.06;5099949;28;785;-47
2021/03/29 03:35:22;;;;;;;;;;;;;;;31.15;17.71;102218.06;5098901;28;804;-34
2021/03/29 03:37:50;;;;;;;;;;;;;;;30.13;18.99;102222.91;5100525;28;1006;-34
2021/03/29 03:40:16;;;;;;;;;;;;;;;29.37;19.98;102229.94;5099687;28;776;-53
2021/03/29 03:42:42;;;;;;;;;;;;;;;26.38;14.66;102088.00;5080794;28;1113;-34
2021/03/29 03:45:08;;;;;;;;;;;;;;;25.76;14.73;102215.81;5099803;28;849;-40
2021/03/29 03:47:34;;;;;;;;;;;;;;;24.69;15.30;102213.28;5081564;28;1914;-44
2021/03/29 03:49:59;;;;;;;;;;;;;;;24.27;15.87;102217.63;5080784;28;733;-37
2021/03/29 03:52:24;;;;;;;;;;;;;;;24.34;17.70;102223.31;5112218;28;966;-37
2021/03/29 03:54:50;;;;;;;;;;;;;;;24.54;21.10;102224.34;5101482;28;1008;-37
2021/03/29 03:57:16;;;;;;;;;;;;;;;26.82;16.41;102225.13;5098893;28;1432;-53
2021/03/29 03:59:42;;;;;;;;;;;;;;;27.04;16.05;102225.81;5101705;28;863;-40
2021/03/29 04:02:07;;;;;;;;;;;;;;;26.93;15.34;102229.50;5100825;28;838;-35
2021/03/29 04:04:33;;;;;;;;;;;;;;;26.94;15.80;102216.84;5118826;28;847;-42
2021/03/29 04:06:59;;;;;;;;;;;;;;;27.44;15.74;102229.22;5117574;28;1901;-34
2021/03/29 04:09:51;;;;;;;;;;;;;;;27.80;16.63;102233.03;5119698;28;716;-35
2021/03/29 04:12:11;;;;;;;;;;;;;;;27.97;17.55;102232.25;5118053;28;1374;-34
2021/03/29 04:14:37;;;;;;;;;;;;;;;27.87;18.99;102236.84;5119425;28;769;-36
2021/03/29 04:17:02;;;;;;;;;;;;;;;28.16;18.31;102241.19;5119227;28;751;-36
2021/03/29 04:19:28;;;;;;;;;;;;;;;28.08;18.86;102241.97;5100354;28;1182;-34
2021/03/29 04:21:53;;;;;;;;;;;;;;;27.67;19.12;102233.38;5099530;28;997;-38
2021/03/29 04:24:19;;;;;;;;;;;;;;;28.02;19.21;102231.78;5118746;28;771;-37
2021/03/29 04:26:44;;;;;;;;;;;;;;;28.56;19.02;102236.34;5098435;28;1902;-35
2021/03/29 04:29:09;;;;;;;;;;;;;;;28.70;18.82;102243.06;5097963;28;1033;-40
2021/03/29 04:31:35;;;;;;;;;;;;;;;28.58;18.79;102250.56;5103147;28;1243;-34
2021/03/29 04:34:00;;;;;;;;;;;;;;;27.85;19.88;102247.81;5098483;28;817;-42
2021/03/29 04:36:25;;;;;;;;;;;;;;;27.60;20.27;102244.78;5099191;28;962;-36
2021/03/29 04:38:50;;;;;;;;;;;;;;;27.97;20.07;102248.47;5097256;28;779;-43
2021/03/29 04:41:16;;;;;;;;;;;;;;;28.80;19.29;102255.63;5097942;28;795;-37
2021/03/29 04:43:41;;;;;;;;;;;;;;;28.09;20.05;102257.19;5098047;28;1210;-35
2021/03/29 04:46:06;;;;;;;;;;;;;;;27.58;20.88;102252.19;5097876;28;1973;-36
2021/03/29 04:48:32;;;;;;;;;;;;;;;27.27;21.40;102249.78;5097927;28;791;-37
2021/03/29 04:50:57;;;;;;;;;;;;;;;27.16;21.48;102255.34;5098704;28;970;-35
2021/03/29 04:53:22;;;;;;;;;;;;;;;28.56;20.17;102249.03;5094790;28;942;-34
2021/03/29 04:55:48;;;;;;;;;;;;;;;29.05;19.23;102253.13;5096696;28;804;-31
2021/03/29 04:58:13;;;;;;;;;;;;;;;28.90;19.84;102242.84;5096902;28;833;-36
2021/03/29 05:00:38;;;;;;;;;;;;;;;29.32;19.24;102251.25;5097058;28;792;-35
2021/03/29 05:03:03;;;;;;;;;;;;;;;28.74;20.08;102257.13;5097117;28;759;-30
2021/03/29 05:05:29;;;;;;;;;;;;;;;28.27;20.81;102248.25;5097422;28;1951;-34
2021/03/29 05:07:54;;;;;;;;;;;;;;;28.94;20.06;102246.09;5098025;28;946;-31
2021/03/29 05:10:20;;;;;;;;;;;;;;;29.34;19.51;102251.94;5097203;28;785;-38
2021/03/29 05:12:45;;;;;;;;;;;;;;;29.02;20.30;102254.31;5097331;28;808;-34
2021/03/29 05:15:11;;;;;;;;;;;;;;;28.24;21.30;102251.25;5097246;28;724;-39
2021/03/29 05:17:36;;;;;;;;;;;;;;;28.27;20.95;102258.22;5097134;28;831;-37
2021/03/29 05:20:02;;;;;;;;;;;;;;;27.82;22.02;102258.09;5097278;28;763;-37
2021/03/29 05:22:28;;;;;;;;;;;;;;;28.56;20.99;102263.41;5097713;28;1013;-38
2021/03/29 05:24:53;;;;;;;;;;;;;;;28.88;20.50;102266.53;5096356;28;867;-34
2021/03/29 05:27:18;;;;;;;;;;;;;;;28.61;20.76;102252.13;5097225;28;1906;-37
2021/03/29 05:29:45;;;;;;;;;;;;;;;28.24;21.59;102260.22;5096944;28;822;-33
2021/03/29 05:32:12;;;;;;;;;;;;;;;28.18;21.79;102250.00;5096742;28;804;-38
2021/03/29 05:34:37;;;;;;;;;;;;;;;29.03;20.66;102257.88;5097387;28;795;-33
2021/03/29 05:37:03;;;;;;;;;;;;;;;28.16;21.52;102254.72;5097985;28;1225;-31
2021/03/29 05:39:28;;;;;;;;;;;;;;;27.77;22.10;102247.72;5117147;28;755;-33
2021/03/29 05:41:54;;;;;;;;;;;;;;;27.88;22.23;102254.75;5116963;28;1220;-36
2021/03/29 05:44:19;;;;;;;;;;;;;;;27.62;22.59;102260.88;5117060;28;786;-48
2021/03/29 05:46:44;;;;;;;;;;;;;;;27.47;22.97;102255.09;5117538;28;1975;-36
2021/03/29 05:49:09;;;;;;;;;;;;;;;28.67;21.26;102259.63;5117072;28;848;-38
2021/03/29 05:51:35;;;;;;;;;;;;;;;28.56;21.05;102254.47;5104525;28;1215;-38
2021/03/29 05:54:01;;;;;;;;;;;;;;;27.97;21.59;102256.59;5094692;28;789;-39
2021/03/29 05:56:28;;;;;;;;;;;;;;;27.74;22.35;102254.28;5108254;28;844;-34
2021/03/29 05:59:07;;;;;;;;;;;;;;;28.09;21.86;102251.78;5116492;28;836;-39
2021/03/29 06:01:59;;;;;;;;;;;;;;;28.34;21.88;102252.06;5117116;28;799;-35
2021/03/29 06:04:42;;;;;;;;;;;;;;;27.67;22.20;102261.28;5112334;28;1839;-35
2021/03/29 06:07:14;;;;;;;;;;;;;;;27.16;23.05;102255.34;5114981;28;1949;-49
2021/03/29 06:09:40;;;;;;;;;;;;;;;27.49;22.50;102255.81;5116408;28;888;-37
2021/03/29 06:12:06;;;;;;;;;;;;;;;27.61;22.66;102253.75;5116845;28;781;-37
2021/03/29 06:14:31;;;;;;;;;;;;;;;26.97;22.82;102249.81;5116276;28;847;-36
2021/03/29 06:17:00;;;;;;;;;;;;;;;27.16;22.92;102245.38;5116146;28;792;-39
2021/03/29 06:19:38;;;;;;;;;;;;;;;27.29;22.57;102250.47;5116776;28;772;-40
2021/03/29 06:22:09;;;;;;;;;;;;;;;27.44;22.43;102250.84;5114691;28;945;-38
2021/03/29 06:24:53;;;;;;;;;;;;;;;27.45;22.45;102255.25;5116712;28;791;-42
2021/03/29 06:27:19;;;;;;;;;;;;;;;27.35;22.44;102249.88;5115853;28;1952;-39
2021/03/29 06:29:44;;;;;;;;;;;;;;;27.52;22.31;102255.50;5115841;28;763;-35
2021/03/29 06:32:09;;;;;;;;;;;;;;;27.25;19.12;102249.91;5116483;28;768;-38
2021/03/29 06:34:35;;;;;;;;;;;;;;;26.92;19.61;102245.84;5116922;28;771;-39
2021/03/29 06:37:07;;;;;;;;;;;;;;;27.08;22.08;102247.97;5096448;28;1354;-37
2021/03/29 06:39:39;;;;;;;;;;;;;;;27.17;22.53;102244.41;5116512;28;763;-39
2021/03/29 06:42:04;;;;;;;;;;;;;;;27.21;22.34;102245.78;5116476;28;971;-35
2021/03/29 06:44:31;;;;;;;;;;;;;;;27.07;22.69;102257.06;5116112;28;764;-38
2021/03/29 06:47:13;;;;;;;;;;;;;;;27.14;22.61;102253.63;5111960;28;1913;-37
2021/03/29 06:49:38;;;;;;;;;;;;;;;27.01;22.45;102247.66;5115246;28;958;-39
2021/03/29 06:52:24;;;;;;;;;;;;;;;27.00;22.20;102251.38;5114346;28;819;-41
2021/03/29 06:54:49;;;;;;;;;;;;;;;26.97;22.45;102257.94;5104825;28;1568;-36
2021/03/29 06:57:25;;;;;;;;;;;;;;;27.14;22.24;102261.75;5116302;28;767;-33
2021/03/29 06:59:50;;;;;;;;;;;;;;;27.26;22.11;102266.97;5096842;28;898;-42
2021/03/29 07:02:15;;;;;;;;;;;;;;;27.27;22.04;102263.28;5116088;28;847;-35
2021/03/29 07:04:41;;;;;;;;;;;;;;;27.21;22.05;102261.19;5120203;28;835;-34
2021/03/29 07:07:06;;;;;;;;;;;;;;;27.25;22.05;102260.72;5099924;28;1964;-36
2021/03/29 07:09:36;;;;;;;;;;;;;;;26.98;20.70;102256.91;5119792;28;740;-43
2021/03/29 07:12:01;;;;;;;;;;;;;;;26.78;21.88;102254.25;5119657;28;850;-43
2021/03/29 07:14:27;;;;;;;;;;;;;;;26.65;22.67;102251.88;5101807;28;760;-42
2021/03/29 07:16:54;;;;;;;;;;;;;;;26.56;23.07;102251.88;5119418;28;867;-41
2021/03/29 07:19:19;;;;;;;;;;;;;;;26.73;22.74;102255.66;5119729;28;882;-38
2021/03/29 07:21:44;;;;;;;;;;;;;;;26.72;22.63;102252.13;5100120;28;977;-34
2021/03/29 07:24:10;;;;;;;;;;;;;;;26.88;22.65;102253.38;5119613;28;764;-34
2021/03/29 07:26:59;;;;;;;;;;;;;;;26.99;22.28;102250.50;5119884;28;1909;-42
2021/03/29 07:29:28;;;;;;;;;;;;;;;27.23;22.22;102254.63;5111224;28;1746;-35
2021/03/29 07:31:54;;;;;;;;;;;;;;;27.42;22.13;102251.97;5118998;28;891;-43
2021/03/29 07:34:38;;;;;;;;;;;;;;;27.44;22.33;102250.84;5101864;28;823;-35
2021/03/29 07:37:23;;;;;;;;;;;;;;;26.88;22.08;102247.97;5117693;28;966;-44
2021/03/29 07:39:48;;;;;;;;;;;;;;;26.51;22.01;102244.19;5119364;28;783;-46
2021/03/29 07:42:23;;;;;;;;;;;;;;;26.45;22.41;102253.72;5119228;28;1012;-38
2021/03/29 07:44:55;;;;;;;;;;;;;;;26.50;23.00;102251.44;5119176;28;795;-44
2021/03/29 07:47:39;;;;;;;;;;;;;;;26.67;22.60;102253.56;5119112;28;1906;-36
2021/03/29 07:50:04;;;;;;;;;;;;;;;26.68;22.43;102252.56;5119299;28;822;-34
2021/03/29 07:52:34;;;;;;;;;;;;;;;26.69;22.66;102262.38;5117636;28;1036;-36
2021/03/29 07:55:01;;;;;;;;;;;;;;;26.73;22.64;102251.13;5100425;28;1108;-33
2021/03/29 07:57:44;;;;;;;;;;;;;;;26.77;22.59;102252.56;5118693;28;767;-34
2021/03/29 08:00:30;;;;;;;;;;;;;;;26.33;23.29;102238.63;5119242;28;742;-33
2021/03/29 08:02:59;;;;;;;;;;;;;;;26.61;22.79;102246.91;5107880;28;1431;-38
2021/03/29 08:05:36;;;;;;;;;;;;;;;26.67;22.90;102245.47;5118465;28;1898;-39
2021/03/29 08:08:03;;;;;;;;;;;;;;;26.64;23.20;102243.91;5116861;28;969;-46
2021/03/29 08:10:47;;;;;;;;;;;;;;;26.90;22.77;102246.00;5119169;28;809;-38
2021/03/29 08:13:12;;;;;;;;;;;;;;;26.92;22.90;102244.00;5118409;28;783;-44
2021/03/29 08:15:56;;;;;;;;;;;;;;;27.13;22.46;102240.28;5118636;28;767;-45
2021/03/29 08:18:21;;;;;;;;;;;;;;;27.18;22.76;102237.13;5119169;28;851;-34
2021/03/29 08:20:53;;;;;;;;;;;;;;;27.05;22.64;102234.75;5118438;28;815;-36
2021/03/29 08:23:24;;;;;;;;;;;;;;;27.09;22.83;102234.31;5098454;28;1081;-39
2021/03/29 08:26:05;;;;;;;;;;;;;;;26.79;21.81;102233.53;5098151;28;1909;-41
2021/03/29 08:28:51;;;;;;;;;;;;;;;26.70;22.19;102226.28;5097592;28;494;-35
2021/03/29 08:31:36;;;;;;;;;;;;;;;26.73;22.91;102221.44;5097603;28;1792;-42
2021/03/29 08:34:01;;;;;;;;;;;;;;;26.92;22.89;102218.84;5097768;28;1380;-36
2021/03/29 08:36:26;;;;;;;;;;;;;;;26.77;22.16;102217.47;5098157;28;883;-43
2021/03/29 08:38:52;;;;;;;;;;;;;;;26.67;22.35;102210.38;5098000;28;744;-49
2021/03/29 08:41:17;;;;;;;;;;;;;;;26.53;22.41;102212.50;5079561;28;808;-45
2021/03/29 08:43:43;;;;;;;;;;;;;;;26.59;22.67;102209.22;5097548;28;1298;-42
2021/03/29 08:46:08;;;;;;;;;;;;;;;26.57;22.82;102211.25;5097772;28;1971;-56
2021/03/29 08:48:34;;;;;;;;;;;;;;;26.69;22.90;102211.09;5097876;28;807;-47
2021/03/29 08:50:59;;;;;;;;;;;;;;;26.61;22.79;102204.53;5080014;28;927;-35
2021/03/29 08:53:24;;;;;;;;;;;;;;;26.78;22.62;102199.41;5118214;28;871;-35
2021/03/29 08:55:51;;;;;;;;;;;;;;;26.88;22.67;102194.84;5118288;28;810;-39
2021/03/29 08:58:17;;;;;;;;;;;;;;;26.78;22.56;102194.88;5117684;28;829;-53
2021/03/29 09:00:43;;;;;;;;;;;;;;;26.82;22.67;102192.72;5117933;28;782;-33
2021/03/29 09:03:15;;;;;;;;;;;;;;;27.01;22.50;102185.56;5118083;28;799;-33
2021/03/29 09:05:40;;;;;;;;;;;;;;;27.09;22.54;102185.69;5117253;28;1965;-33
2021/03/29 09:08:08;;;;;;;;;;;;;;;26.99;22.50;102176.78;5115414;28;985;-44
2021/03/29 09:10:36;;;;;;;;;;;;;;;26.86;22.36;102164.44;5117762;28;751;-33
2021/03/29 09:13:02;;;;;;;;;;;;;;;27.07;22.68;102170.66;5117412;28;819;-37
2021/03/29 09:15:31;;;;;;;;;;;;;;;27.11;22.61;102166.66;5116803;28;776;-41
2021/03/29 09:18:00;;;;;;;;;;;;;;;27.09;22.72;102160.56;5117929;28;842;-34
2021/03/29 09:20:26;;;;;;;;;;;;;;;27.11;22.71;102158.56;5117890;28;762;-50
2021/03/29 09:22:52;;;;;;;;;;;;;;;27.05;22.73;102154.59;5115675;28;961;-39
2021/03/29 09:25:24;;;;;;;;;;;;;;;27.13;22.79;102160.09;5117152;28;810;-48
2021/03/29 09:28:06;;;;;;;;;;;;;;;27.21;22.38;102153.13;5117271;28;1902;-43
2021/03/29 09:30:31;;;;;;;;;;;;;;;27.17;22.59;102157.97;5117436;28;795;-46
2021/03/29 09:32:57;;;;;;;;;;;;;;;27.18;22.06;102151.53;5117381;28;803;-35
2021/03/29 09:35:23;;;;;;;;;;;;;;;27.28;22.33;102148.78;5117516;28;787;-33
2021/03/29 09:37:48;;;;;;;;;;;;;;;27.10;22.41;102148.75;5115422;28;859;-33
2021/03/29 09:40:13;;;;;;;;;;;;;;;27.20;22.52;102146.84;5116296;28;811;-45
2021/03/29 09:42:40;;;;;;;;;;;;;;;27.29;22.20;102157.75;5117297;28;1070;-33
2021/03/29 09:45:06;;;;;;;;;;;;;;;26.93;22.35;102148.50;5117025;28;825;-35
2021/03/29 09:47:31;;;;;;;;;;;;;;;26.90;20.79;102133.44;5090307;28;1976;-33
2021/03/29 09:49:57;;;;;;;;;;;;;;;26.94;20.91;102138.56;5096745;28;730;-49
2021/03/29 09:52:32;;;;;;;;;;;;;;;26.95;21.73;102140.25;5096850;28;963;-33
2021/03/29 09:54:58;;;;;;;;;;;;;;;26.91;19.71;102139.69;5098098;28;1421;-45
2021/03/29 09:57:24;;;;;;;;;;;;;;;26.73;19.02;102132.38;5097223;28;915;-45
2021/03/29 09:59:51;;;;;;;;;;;;;;;26.69;19.44;102122.88;5096418;28;836;-35
2021/03/29 10:02:25;;;;;;;;;;;;;;;27.04;19.99;102114.25;5096699;28;867;-39
2021/03/29 10:05:04;;;;;;;;;;;;;;;26.94;23.49;102119.66;5096798;28;710;-42
2021/03/29 10:07:29;;;;;;;;;;;;;;;26.99;26.22;102122.75;5109052;28;1972;-43
2021/03/29 10:09:58;;;;;;;;;;;;;;;27.04;24.10;102117.78;5117413;28;851;-43
2021/03/29 10:12:24;;;;;;;;;;;;;;;26.97;25.52;102125.59;5115262;28;870;-35
2021/03/29 10:14:50;;;;;;;;;;;;;;;26.81;24.29;102117.28;5116162;28;803;-42
2021/03/29 10:17:18;;;;;;;;;;;;;;;22.77;19.47;102130.06;5116847;28;768;-44
2021/03/29 10:19:44;;;;;;;;;;;;;;;25.28;19.26;102115.84;5117186;28;870;-38
2021/03/29 10:22:16;;;;;;;;;;;;;;;25.78;21.56;102112.28;5114948;28;949;-34
2021/03/29 10:25:18;;;;;;;;;;;;;;;26.11;21.60;102113.84;5117130;28;788;-35
2021/03/29 10:27:53;;;;;;;;;;;;;;;26.22;20.81;102091.25;5053528;28;1901;-34
2021/03/29 10:30:18;;;;;;;;;;;;;;;26.37;20.95;102103.34;5108109;28;903;-33
2021/03/29 10:32:44;;;;;;;;;;;;;;;26.27;19.63;102107.88;5116375;28;859;-35
2021/03/29 10:35:10;;;;;;;;;;;;;;;26.22;19.76;102107.44;5098298;28;855;-33
2021/03/29 10:37:35;;;;;;;;;;;;;;;26.58;19.40;102107.69;5115991;28;925;-35
2021/03/29 10:40:00;;;;;;;;;;;;;;;26.49;18.08;102098.59;5121064;28;858;-32
2021/03/29 10:42:27;;;;;;;;;;;;;;;26.68;18.23;102088.75;5120548;28;1034;-34
2021/03/29 10:44:53;;;;;;;;;;;;;;;26.77;19.48;102093.28;5119873;28;838;-41
2021/03/29 10:47:18;;;;;;;;;;;;;;;26.87;19.68;102087.00;5120739;28;1974;-35
2021/03/29 10:49:43;;;;;;;;;;;;;;;27.05;19.97;102092.47;5102051;28;861;-34
2021/03/29 10:52:09;;;;;;;;;;;;;;;27.18;19.46;102085.84;5119039;28;969;-33
2021/03/29 10:54:34;;;;;;;;;;;;;;;27.13;19.95;102084.47;5120703;28;747;-36
2021/03/29 10:56:59;;;;;;;;;;;;;;;27.21;19.78;102089.13;5120788;28;819;-36
2021/03/29 10:59:25;;;;;;;;;;;;;;;27.12;19.87;102088.19;5120262;28;783;-43
2021/03/29 11:01:50;;;;;;;;;;;;;;;27.21;19.84;102078.31;5101689;28;820;-42
2021/03/29 11:04:16;;;;;;;;;;;;;;;27.24;19.85;102078.00;5120052;28;834;-35
2021/03/29 11:06:41;;;;;;;;;;;;;;;27.30;19.97;102070.28;5118661;28;1978;-37
2021/03/29 11:09:06;;;;;;;;;;;;;;;27.50;19.70;102063.75;5120170;28;833;-37
2021/03/29 11:11:32;;;;;;;;;;;;;;;27.46;19.92;102056.94;5119732;28;1214;-43
2021/03/29 11:13:57;;;;;;;;;;;;;;;27.43;19.55;102067.22;5120093;28;902;-35
2021/03/29 11:16:23;;;;;;;;;;;;;;;27.42;19.43;102066.38;5119843;28;886;-39
2021/03/29 11:18:49;;;;;;;;;;;;;;;27.43;19.90;102065.38;5119403;28;846;-33
2021/03/29 11:21:14;;;;;;;;;;;;;;;27.57;19.39;102063.13;5117934;28;973;-30
2021/03/29 11:23:40;;;;;;;;;;;;;;;27.71;19.84;102048.28;5120243;28;830;-40
2021/03/29 11:26:05;;;;;;;;;;;;;;;27.41;19.58;102047.63;5119868;28;1906;-30
2021/03/29 11:28:31;;;;;;;;;;;;;;;27.62;19.44;102048.19;5119909;28;779;-37
2021/03/29 11:30:56;;;;;;;;;;;;;;;27.68;19.67;102051.22;5119854;28;783;-41
2021/03/29 11:33:21;;;;;;;;;;;;;;;27.66;19.87;102054.09;5120186;28;780;-31
2021/03/29 11:35:47;;;;;;;;;;;;;;;27.55;19.86;102047.09;5119690;28;818;-40
2021/03/29 11:38:12;;;;;;;;;;;;;;;27.69;19.87;102044.88;5118141;28;997;-43
2021/03/29 11:40:37;;;;;;;;;;;;;;;27.83;19.63;102044.31;5119794;28;775;-33
2021/03/29 11:43:03;;;;;;;;;;;;;;;27.77;19.79;102038.69;5119287;28;1007;-35
2021/03/29 11:45:28;;;;;;;;;;;;;;;27.62;19.81;102037.38;5119452;28;744;-37
2021/03/29 11:47:53;;;;;;;;;;;;;;;27.67;19.68;102027.91;5118329;28;1898;-39
2021/03/29 11:50:19;;;;;;;;;;;;;;;27.50;19.66;102025.06;5119184;28;748;-35
2021/03/29 11:52:44;;;;;;;;;;;;;;;27.58;20.01;102018.88;5117946;28;961;-41
2021/03/29 11:55:10;;;;;;;;;;;;;;;27.57;19.43;102006.38;5119343;28;764;-41
2021/03/29 11:57:35;;;;;;;;;;;;;;;28.07;19.83;102009.50;5118896;28;881;-42
2021/03/29 12:00:02;;;;;;;;;;;;;;;28.21;19.67;102011.59;5119352;28;756;-40
2021/03/29 12:02:36;;;;;;;;;;;;;;;28.17;19.83;102010.25;5119019;28;812;-42
2021/03/29 12:05:15;;;;;;;;;;;;;;;28.20;19.58;102011.78;5119099;28;796;-38
2021/03/29 12:07:50;;;;;;;;;;;;;;;28.24;20.12;102000.47;5118008;28;1901;-35
2021/03/29 12:13:00;;;;;;;;;;;;;;;27.99;20.56;101999.47;5103216;28;614;-32
2021/03/29 12:15:25;;;;;;;;;;;;;;;28.14;20.62;101996.19;5100013;28;896;-40
2021/03/29 12:17:50;;;;;;;;;;;;;;;28.04;20.30;101990.88;5118916;28;768;-36
2021/03/29 12:20:16;;;;;;;;;;;;;;;28.03;20.51;101981.91;5118050;28;851;-36
2021/03/29 12:22:45;;;;;;;;;;;;;;;28.07;20.54;101974.34;5098538;28;950;-32
2021/03/29 12:25:11;;;;;;;;;;;;;;;28.10;20.13;101972.16;5118377;28;903;-42
2021/03/29 12:27:37;;;;;;;;;;;;;;;27.99;20.23;101972.44;5118628;28;1902;-41
2021/03/29 12:30:05;;;;;;;;;;;;;;;27.84;20.68;101982.97;5100806;28;748;-42
2021/03/29 12:32:30;;;;;;;;;;;;;;;28.18;20.07;101994.84;5118424;28;551;-32
2021/03/29 12:34:57;;;;;;;;;;;;;;;28.03;19.27;101976.50;5100292;28;799;-34
2021/03/29 12:37:24;;;;;;;;;;;;;;;28.05;20.42;101979.91;5079327;28;1247;-44
2021/03/29 12:42:32;;;;;;;;;;;;;;;28.11;20.33;101981.13;5097663;28;1780;-41
2021/03/29 12:44:57;;;;;;;;;;;;;;;27.77;20.74;101977.34;5098236;28;877;-40
2021/03/29 12:47:25;;;;;;;;;;;;;;;27.86;20.64;101978.28;5097897;28;1918;-41
2021/03/29 12:49:51;;;;;;;;;;;;;;;28.17;20.11;101972.38;5097550;28;851;-42
2021/03/29 12:52:17;;;;;;;;;;;;;;;28.85;20.00;101977.06;5107881;28;1029;-44
2021/03/29 12:54:43;;;;;;;;;;;;;;;29.06;19.70;101960.38;5099765;28;776;-48
2021/03/29 12:57:10;;;;;;;;;;;;;;;29.34;19.87;101964.66;5118115;28;771;-42
2021/03/29 12:59:35;;;;;;;;;;;;;;;29.58;19.34;101974.63;5117596;28;816;-45
2021/03/29 13:02:01;;;;;;;;;;;;;;;29.68;19.80;101973.63;5117319;28;847;-41